(°C)
10°
11°
11°
11°
10°
(°C)
SW
SW
SSW
SSW
جنوب
جنوب
SSW
(كم/سا)
10-16
9-14
8-12
7-12
7-10
6-10
6-8
(مم)
0
0
0
0
0
0
0
(%)
3
1
2
2
2
2
2

مستوى ارتفاع الشمس

/ 33.5°
sun-icon
UV 1
06:06
18:25
قمر المساء (198°)
19:11
07:20

متر ل51.82°شمال 39.23°شرق (UUOO)

الوقت الشروط درجة الحرارة/
نقطة الندى
رياح مجال رؤية حالة الطقس غيوم الضغط تغيير خام
MVFR 10°C / 6°C 230º variable 190º to 260º 4kt >10km - Broken Clouds 2800ft 1011 No Significant change. Runway 12: Wet or puddles, 51-100% contamination with 1mm, friction coefficient 0.55. UUOO 221030Z 23002MPS 190V260 9999 BKN028 10/06 Q1011 R12/290155 NOSIG RMK QFE744
MVFR 10°C / 5°C 250º 6kt >10km - Broken Clouds 2400ft 1011 No Significant change. Runway 12: Wet or puddles, 51-100% contamination with 1mm, friction coefficient 0.55. UUOO 221000Z 25003MPS 9999 BKN024 10/05 Q1011 R12/290155 NOSIG RMK QFE744
MVFR 10°C / 6°C 250º 6kt >10km - Broken Clouds 2800ft 1011 No Significant change. Runway 12: Wet or puddles, 51-100% contamination with 1mm, friction coefficient 0.55. UUOO 220930Z 25003MPS 9999 BKN028 10/06 Q1011 R12/290155 NOSIG RMK QFE744
MVFR 10°C / 6°C 250º 4kt >10km - Broken Clouds 2100ft 1011 No Significant change. Runway 12: Wet or puddles, 51-100% contamination with 1mm, friction coefficient 0.55. UUOO 220900Z 25002MPS 9999 BKN021 10/06 Q1011 R12/290155 NOSIG RMK QFE744
MVFR 10°C / 6°C 250º 6kt >10km - Broken Clouds 3000ft 1011 No Significant change. Runway 12: Wet or puddles, 51-100% contamination with 1mm, friction coefficient 0.55. UUOO 220830Z 25003MPS 9999 BKN030 10/06 Q1011 R12/290155 NOSIG RMK QFE744
VFR 10°C / 7°C variable 2kt >10km - Clouds and Visibility OK 1011 No Significant change. Runway 12: Wet or puddles, 51-100% contamination with 1mm, friction coefficient 0.55. UUOO 220800Z VRB01MPS CAVOK 10/07 Q1011 R12/290155 NOSIG RMK QFE744
IFR 9°C / 7°C 270º variable 210º to 300º 4kt >10km Light Rain 1.00mm precipitation Vertical Visibility of 0ft. 1011 Temporary: Broken Clouds 400ft. RMK QFE744 . Runway 12: Wet or puddles, 51-100% contamination with 1mm, friction coefficient 0.55. UUOO 220730Z 27002MPS 210V300 9999 -RA BKN007 09/07 Q1011 R12/290155 TEMPO BKN004 RMK QFE744
MVFR 9°C / 7°C 260º 6kt >10km Light Rain 1.00mm precipitation Vertical Visibility of 0ft. 1011 Temporary: Broken Clouds 400ft. RMK QFE744 . Runway 12: Wet or puddles, 51-100% contamination with 1mm, friction coefficient 0.55. UUOO 220700Z 26003MPS 9999 -RA BKN010 09/07 Q1011 R12/290155 TEMPO BKN004 RMK QFE744
VFR 8°C / 7°C 270º 4kt >10km Light Rain 1.00mm precipitation Vertical Visibility of 0ft. 1011 Temporary: Broken Clouds 400ft. RMK QFE744 . Runway 12: Wet or puddles, 51-100% contamination with 1mm, friction coefficient 0.55. UUOO 220630Z 27002MPS 9999 -RA NSC 08/07 Q1011 R12/290155 TEMPO BKN004 RMK QFE744
VFR 8°C / 7°C 250º 4kt 9000m Light Rain 1.00mm precipitation Vertical Visibility of 0ft. 1011 Temporary: Broken Clouds 400ft. RMK QFE744 . Runway 12: Damp, 51-100% contamination with <1mm, friction coefficient 0.60. UUOO 220600Z 25002MPS 9000 -RA NSC 08/07 Q1011 R12/190060 TEMPO BKN004 RMK QFE744
VFR 8°C / 7°C 260º 4kt >10km - Broken Clouds 3900ft 1010 Temporary: Broken Clouds 400ft. RMK QFE744 . Runway 30: Damp, 51-100% contamination with <1mm, friction coefficient 0.60. UUOO 220530Z 26002MPS 9999 BKN039 08/07 Q1010 R30/190060 TEMPO BKN004 RMK QFE744
VFR 8°C / 6°C 260º 4kt >10km - Broken Clouds 3300ft 1010 No Significant change. Runway 30: Damp, 51-100% contamination with <1mm, friction coefficient 0.60. UUOO 220500Z 26002MPS 9999 BKN033 08/06 Q1010 R30/190060 NOSIG RMK QFE744
VFR 8°C / 7°C 280º 4kt >10km - Broken Clouds 3300ft 1010 No Significant change. Runway 30: Damp, 51-100% contamination with <1mm, friction coefficient 0.60. UUOO 220430Z 28002MPS 9999 BKN033 08/07 Q1010 R30/190060 NOSIG RMK QFE744
MVFR 7°C / 7°C 280º 6kt >10km - Overcast 2600ft 1010 No Significant change. Runway 30: Damp, 51-100% contamination with <1mm, friction coefficient 0.60. UUOO 220400Z 28003MPS 9999 OVC026 07/07 Q1010 R30/190060 NOSIG RMK QFE744
MVFR 7°C / 6°C 260º 6kt >10km - Overcast 2700ft 1010 No Significant change. Runway 30: Damp, 51-100% contamination with <1mm, friction coefficient 0.60. UUOO 220330Z 26003MPS 9999 OVC027 07/06 Q1010 R30/190060 NOSIG RMK QFE744
MVFR 8°C / 6°C 270º 6kt >10km - Overcast 2200ft 1010 No Significant change. Runway 30: Damp, 51-100% contamination with <1mm, friction coefficient 0.60. UUOO 220300Z 27003MPS 9999 OVC022 08/06 Q1010 R30/190060 NOSIG RMK QFE744
MVFR 8°C / 7°C 280º 4kt >10km - Overcast 2600ft 1010 No Significant change. Runway 30: Wet or puddles, 51-100% contamination with 1mm, friction coefficient 0.55. UUOO 220230Z 28002MPS 9999 OVC026 08/07 Q1010 R30/290155 NOSIG RMK QFE744
MVFR 9°C / 7°C 270º 4kt >10km - Overcast 1600ft 1010 No Significant change. Runway 30: Wet or puddles, 51-100% contamination with 1mm, friction coefficient 0.55. UUOO 212330Z 27002MPS 9999 OVC016 09/07 Q1010 R30/290155 NOSIG RMK QFE744
MVFR 9°C / 8°C 290º 8kt >10km - Overcast 1200ft 1010 No Significant change. Runway 30: Wet or puddles, 51-100% contamination with 1mm, friction coefficient 0.55. UUOO 212300Z 29004MPS 9999 OVC012 09/08 Q1010 R30/290155 NOSIG RMK QFE744
MVFR 9°C / 8°C 280º 6kt >10km - Overcast 1400ft 1010 No Significant change. Runway 30: Wet or puddles, 51-100% contamination with 1mm, friction coefficient 0.55. UUOO 212230Z 28003MPS 9999 OVC014 09/08 Q1010 R30/290155 NOSIG RMK QFE744
MVFR 9°C / 9°C 280º 4kt >10km - Overcast 2700ft 1010 No Significant change. Runway 30: Wet or puddles, 51-100% contamination with 1mm, friction coefficient 0.55. UUOO 212200Z 28002MPS 9999 OVC027 09/09 Q1010 R30/290155 NOSIG RMK QFE744
MVFR 10°C / 9°C 280º 4kt >10km - Overcast 2500ft 1010 No Significant change. Runway 30: Wet or puddles, 51-100% contamination with 1mm, friction coefficient 0.55. UUOO 212130Z 28002MPS 9999 OVC025 10/09 Q1010 R30/290155 NOSIG RMK QFE744
MVFR 10°C / 9°C 280º 4kt >10km - Overcast 1300ft 1010 No Significant change. Runway 30: Wet or puddles, 51-100% contamination with 1mm, friction coefficient 0.55. UUOO 212100Z 28002MPS 9999 OVC013 10/09 Q1010 R30/290155 NOSIG RMK QFE744
MVFR 10°C / 9°C 270º 4kt >10km - Overcast 2700ft 1010 No Significant change. Runway 30: Wet or puddles, 51-100% contamination with 1mm, friction coefficient 0.55. UUOO 212030Z 27002MPS 9999 OVC027 10/09 Q1010 R30/290155 NOSIG RMK QFE744

MVFR

10°C / 6°C

[أكثر]
رياح 230º variable 190º to 260º 4kt
مجال رؤية >10km
حالة الطقس -
غيوم Broken Clouds 2800ft
الضغط 1011
تغيير No Significant change. Runway 12: Wet or puddles, 51-100% contamination with 1mm, friction coefficient 0.55.
خام UUOO 221030Z 23002MPS 190V260 9999 BKN028 10/06 Q1011 R12/290155 NOSIG RMK QFE744

MVFR

10°C / 5°C

[أكثر]
رياح 250º 6kt
مجال رؤية >10km
حالة الطقس -
غيوم Broken Clouds 2400ft
الضغط 1011
تغيير No Significant change. Runway 12: Wet or puddles, 51-100% contamination with 1mm, friction coefficient 0.55.
خام UUOO 221000Z 25003MPS 9999 BKN024 10/05 Q1011 R12/290155 NOSIG RMK QFE744

MVFR

10°C / 6°C

[أكثر]
رياح 250º 6kt
مجال رؤية >10km
حالة الطقس -
غيوم Broken Clouds 2800ft
الضغط 1011
تغيير No Significant change. Runway 12: Wet or puddles, 51-100% contamination with 1mm, friction coefficient 0.55.
خام UUOO 220930Z 25003MPS 9999 BKN028 10/06 Q1011 R12/290155 NOSIG RMK QFE744

MVFR

10°C / 6°C

[أكثر]
رياح 250º 4kt
مجال رؤية >10km
حالة الطقس -
غيوم Broken Clouds 2100ft
الضغط 1011
تغيير No Significant change. Runway 12: Wet or puddles, 51-100% contamination with 1mm, friction coefficient 0.55.
خام UUOO 220900Z 25002MPS 9999 BKN021 10/06 Q1011 R12/290155 NOSIG RMK QFE744

MVFR

10°C / 6°C

[أكثر]
رياح 250º 6kt
مجال رؤية >10km
حالة الطقس -
غيوم Broken Clouds 3000ft
الضغط 1011
تغيير No Significant change. Runway 12: Wet or puddles, 51-100% contamination with 1mm, friction coefficient 0.55.
خام UUOO 220830Z 25003MPS 9999 BKN030 10/06 Q1011 R12/290155 NOSIG RMK QFE744

VFR

10°C / 7°C

[أكثر]
رياح variable 2kt
مجال رؤية >10km
حالة الطقس -
غيوم Clouds and Visibility OK
الضغط 1011
تغيير No Significant change. Runway 12: Wet or puddles, 51-100% contamination with 1mm, friction coefficient 0.55.
خام UUOO 220800Z VRB01MPS CAVOK 10/07 Q1011 R12/290155 NOSIG RMK QFE744

IFR

9°C / 7°C

[أكثر]
رياح 270º variable 210º to 300º 4kt
مجال رؤية >10km
حالة الطقس Light Rain 1.00mm precipitation
غيوم Vertical Visibility of 0ft.
الضغط 1011
تغيير Temporary: Broken Clouds 400ft. RMK QFE744 . Runway 12: Wet or puddles, 51-100% contamination with 1mm, friction coefficient 0.55.
خام UUOO 220730Z 27002MPS 210V300 9999 -RA BKN007 09/07 Q1011 R12/290155 TEMPO BKN004 RMK QFE744

MVFR

9°C / 7°C

[أكثر]
رياح 260º 6kt
مجال رؤية >10km
حالة الطقس Light Rain 1.00mm precipitation
غيوم Vertical Visibility of 0ft.
الضغط 1011
تغيير Temporary: Broken Clouds 400ft. RMK QFE744 . Runway 12: Wet or puddles, 51-100% contamination with 1mm, friction coefficient 0.55.
خام UUOO 220700Z 26003MPS 9999 -RA BKN010 09/07 Q1011 R12/290155 TEMPO BKN004 RMK QFE744

VFR

8°C / 7°C

[أكثر]
رياح 270º 4kt
مجال رؤية >10km
حالة الطقس Light Rain 1.00mm precipitation
غيوم Vertical Visibility of 0ft.
الضغط 1011
تغيير Temporary: Broken Clouds 400ft. RMK QFE744 . Runway 12: Wet or puddles, 51-100% contamination with 1mm, friction coefficient 0.55.
خام UUOO 220630Z 27002MPS 9999 -RA NSC 08/07 Q1011 R12/290155 TEMPO BKN004 RMK QFE744

VFR

8°C / 7°C

[أكثر]
رياح 250º 4kt
مجال رؤية 9000m
حالة الطقس Light Rain 1.00mm precipitation
غيوم Vertical Visibility of 0ft.
الضغط 1011
تغيير Temporary: Broken Clouds 400ft. RMK QFE744 . Runway 12: Damp, 51-100% contamination with <1mm, friction coefficient 0.60.
خام UUOO 220600Z 25002MPS 9000 -RA NSC 08/07 Q1011 R12/190060 TEMPO BKN004 RMK QFE744

VFR

8°C / 7°C

[أكثر]
رياح 260º 4kt
مجال رؤية >10km
حالة الطقس -
غيوم Broken Clouds 3900ft
الضغط 1010
تغيير Temporary: Broken Clouds 400ft. RMK QFE744 . Runway 30: Damp, 51-100% contamination with <1mm, friction coefficient 0.60.
خام UUOO 220530Z 26002MPS 9999 BKN039 08/07 Q1010 R30/190060 TEMPO BKN004 RMK QFE744

VFR

8°C / 6°C

[أكثر]
رياح 260º 4kt
مجال رؤية >10km
حالة الطقس -
غيوم Broken Clouds 3300ft
الضغط 1010
تغيير No Significant change. Runway 30: Damp, 51-100% contamination with <1mm, friction coefficient 0.60.
خام UUOO 220500Z 26002MPS 9999 BKN033 08/06 Q1010 R30/190060 NOSIG RMK QFE744

VFR

8°C / 7°C

[أكثر]
رياح 280º 4kt
مجال رؤية >10km
حالة الطقس -
غيوم Broken Clouds 3300ft
الضغط 1010
تغيير No Significant change. Runway 30: Damp, 51-100% contamination with <1mm, friction coefficient 0.60.
خام UUOO 220430Z 28002MPS 9999 BKN033 08/07 Q1010 R30/190060 NOSIG RMK QFE744

MVFR

7°C / 7°C

[أكثر]
رياح 280º 6kt
مجال رؤية >10km
حالة الطقس -
غيوم Overcast 2600ft
الضغط 1010
تغيير No Significant change. Runway 30: Damp, 51-100% contamination with <1mm, friction coefficient 0.60.
خام UUOO 220400Z 28003MPS 9999 OVC026 07/07 Q1010 R30/190060 NOSIG RMK QFE744

MVFR

7°C / 6°C

[أكثر]
رياح 260º 6kt
مجال رؤية >10km
حالة الطقس -
غيوم Overcast 2700ft
الضغط 1010
تغيير No Significant change. Runway 30: Damp, 51-100% contamination with <1mm, friction coefficient 0.60.
خام UUOO 220330Z 26003MPS 9999 OVC027 07/06 Q1010 R30/190060 NOSIG RMK QFE744

MVFR

8°C / 6°C

[أكثر]
رياح 270º 6kt
مجال رؤية >10km
حالة الطقس -
غيوم Overcast 2200ft
الضغط 1010
تغيير No Significant change. Runway 30: Damp, 51-100% contamination with <1mm, friction coefficient 0.60.
خام UUOO 220300Z 27003MPS 9999 OVC022 08/06 Q1010 R30/190060 NOSIG RMK QFE744

MVFR

8°C / 7°C

[أكثر]
رياح 280º 4kt
مجال رؤية >10km
حالة الطقس -
غيوم Overcast 2600ft
الضغط 1010
تغيير No Significant change. Runway 30: Wet or puddles, 51-100% contamination with 1mm, friction coefficient 0.55.
خام UUOO 220230Z 28002MPS 9999 OVC026 08/07 Q1010 R30/290155 NOSIG RMK QFE744

MVFR

9°C / 7°C

[أكثر]
رياح 270º 4kt
مجال رؤية >10km
حالة الطقس -
غيوم Overcast 1600ft
الضغط 1010
تغيير No Significant change. Runway 30: Wet or puddles, 51-100% contamination with 1mm, friction coefficient 0.55.
خام UUOO 212330Z 27002MPS 9999 OVC016 09/07 Q1010 R30/290155 NOSIG RMK QFE744

MVFR

9°C / 8°C

[أكثر]
رياح 290º 8kt
مجال رؤية >10km
حالة الطقس -
غيوم Overcast 1200ft
الضغط 1010
تغيير No Significant change. Runway 30: Wet or puddles, 51-100% contamination with 1mm, friction coefficient 0.55.
خام UUOO 212300Z 29004MPS 9999 OVC012 09/08 Q1010 R30/290155 NOSIG RMK QFE744

MVFR

9°C / 8°C

[أكثر]
رياح 280º 6kt
مجال رؤية >10km
حالة الطقس -
غيوم Overcast 1400ft
الضغط 1010
تغيير No Significant change. Runway 30: Wet or puddles, 51-100% contamination with 1mm, friction coefficient 0.55.
خام UUOO 212230Z 28003MPS 9999 OVC014 09/08 Q1010 R30/290155 NOSIG RMK QFE744

MVFR

9°C / 9°C

[أكثر]
رياح 280º 4kt
مجال رؤية >10km
حالة الطقس -
غيوم Overcast 2700ft
الضغط 1010
تغيير No Significant change. Runway 30: Wet or puddles, 51-100% contamination with 1mm, friction coefficient 0.55.
خام UUOO 212200Z 28002MPS 9999 OVC027 09/09 Q1010 R30/290155 NOSIG RMK QFE744

MVFR

10°C / 9°C

[أكثر]
رياح 280º 4kt
مجال رؤية >10km
حالة الطقس -
غيوم Overcast 2500ft
الضغط 1010
تغيير No Significant change. Runway 30: Wet or puddles, 51-100% contamination with 1mm, friction coefficient 0.55.
خام UUOO 212130Z 28002MPS 9999 OVC025 10/09 Q1010 R30/290155 NOSIG RMK QFE744

MVFR

10°C / 9°C

[أكثر]
رياح 280º 4kt
مجال رؤية >10km
حالة الطقس -
غيوم Overcast 1300ft
الضغط 1010
تغيير No Significant change. Runway 30: Wet or puddles, 51-100% contamination with 1mm, friction coefficient 0.55.
خام UUOO 212100Z 28002MPS 9999 OVC013 10/09 Q1010 R30/290155 NOSIG RMK QFE744

MVFR

10°C / 9°C

[أكثر]
رياح 270º 4kt
مجال رؤية >10km
حالة الطقس -
غيوم Overcast 2700ft
الضغط 1010
تغيير No Significant change. Runway 30: Wet or puddles, 51-100% contamination with 1mm, friction coefficient 0.55.
خام UUOO 212030Z 27002MPS 9999 OVC027 10/09 Q1010 R30/290155 NOSIG RMK QFE744

انقر ل51.82°شمال 39.23°شرق (UUOO)

From till


From till Wind 270º 6kt. Visibility 10km or more. Broken Clouds 1600ft.
Temporarly from till Broken Clouds 700ft. Broken Clouds 1600ft.

خام: TAF UUOO 220800Z 2209/2218 27003MPS 9999 BKN016 TEMPO 2210/2218 BKN007 BKN016CB

صور الأقمار الصناعية الملتقطة و الأمطار حالياً ل51.82°شمال 39.23°شرق

المؤشر يدل على موقع 51.82°شمال 39.23°شرق. [أكثر]

تجمع صورة الأقمار الصناعية في الوقت الفعلي بين الضوء المرئي أثناء النهار والأشعة تحت الحمراء أثناء الليل. لا تبدو الصورة مظلمة ليلاً، لأن الأشعة تحت الحمراء يمكنها الكشف عن الاختلافات في درجة الحرارة. لسوء الحظ ، يصعب التمييز بين السحب المنخفضة والضباب ودرجات حرارة الأرض ، وبالتالي يمكن أن تكون الصور غير مرئية تقريبًا أثناء الليل. يتم تحديث صور الأقمار الصناعية Meteosat الخاصة بأوروبا في الوقت الفعلي كل 5 دقائق، بينما يتم تحديث صور GOES-16 / GOES-17 (أمريكا الشمالية والجنوبية) و Himawari (آسيا) كل 10 دقائق.

حقوق النسخ 2021 EUMETSAT / meteoblue. / حقوق النسخ 2021 meteoblue

رادار وهطول الأمطار التنبؤ الآني ل51.82°شمال 39.23°شرق

رذاذ
ضوء
معتدل
ثقيل
ثقيل جدا
وابل

مؤشر المكان يشير الى 51.82°شمال 39.23°شرق. تظهر في هذه الرسوم المتحركة هطول الامطار بالرادار للساعة الماضية, و توقعات 1h. رذاذ أو تساقط ثلوج خفيف قد يكون غير مرئي للرادار. كثافة هطول الأمطار مرمزة بالألوان وتتراوح من الأزرق الفاتح إلى البرتقالي.